Time;durP1;ratioP1;P1;durP2;ratioP2;P2;SDS_P1;SDS_P2;PMS_P1;PMS_P2;Temp;Humidity;BMP_temperature;BMP_pressure;BME280_temperature;BME280_humidity;BME280_pressure;Samples;Min_cycle;Max_cycle;Signal;HPM_P1;HPM_P2
2023/08/10 00:00:16;;;;;;;1.95;1.02;;;;;;;;;;6278020;22;20165;-89
2023/08/10 00:03:21;;;;;;;0.88;0.88;;;;;;;;;;6278387;22;20290;-89
2023/08/10 00:06:27;;;;;;;0.95;0.80;;;;;;;;;;6279669;22;20153;-89
2023/08/10 00:09:33;;;;;;;1.50;0.70;;;;;;;;;;6278455;22;20166;-89
2023/08/10 00:12:38;;;;;;;0.88;0.88;;;;;;;;;;6277866;22;20189;-90
2023/08/10 00:15:45;;;;;;;1.25;0.68;;;;;;;;;;6277472;22;20161;-89
2023/08/10 00:18:51;;;;;;;0.52;0.52;;;;;;;;;;6276858;22;20162;-89
2023/08/10 00:21:56;;;;;;;0.60;0.60;;;;;;;;;;6278371;22;20177;-90
2023/08/10 00:25:02;;;;;;;1.45;0.68;;;;;;;;;;6278665;22;20236;-90
2023/08/10 00:28:08;;;;;;;1.17;1.05;;;;;;;;;;6277799;22;20246;-89
2023/08/10 00:31:14;;;;;;;0.60;0.40;;;;;;;;;;6277991;22;20165;-89
2023/08/10 00:34:19;;;;;;;0.75;0.75;;;;;;;;;;6277076;22;20186;-90
2023/08/10 00:37:25;;;;;;;0.35;0.35;;;;;;;;;;6276801;22;20193;-89
2023/08/10 00:40:30;;;;;;;0.95;0.93;;;;;;;;;;6277647;22;20174;-89
2023/08/10 00:43:36;;;;;;;1.65;0.85;;;;;;;;;;6277899;22;20193;-89
2023/08/10 00:46:44;;;;;;;1.27;0.68;;;;;;;;;;6275770;22;20240;-89
2023/08/10 00:49:50;;;;;;;0.68;0.68;;;;;;;;;;6278716;22;20165;-88
2023/08/10 00:52:57;;;;;;;0.65;0.65;;;;;;;;;;6295689;22;20169;-90
2023/08/10 00:56:03;;;;;;;0.85;0.85;;;;;;;;;;6276965;22;20196;-89
2023/08/10 00:59:10;;;;;;;0.50;0.50;;;;;;;;;;6278147;22;20221;-89
2023/08/10 01:02:18;;;;;;;0.70;0.70;;;;;;;;;;6279575;22;20157;-91
2023/08/10 01:05:26;;;;;;;0.55;0.55;;;;;;;;;;6279444;22;20199;-90
2023/08/10 01:08:33;;;;;;;0.70;0.70;;;;;;;;;;6278710;22;20169;-89
2023/08/10 01:11:40;;;;;;;0.60;0.60;;;;;;;;;;6279553;22;20173;-90
2023/08/10 01:14:49;;;;;;;2.10;1.20;;;;;;;;;;6278631;22;20165;-89
2023/08/10 01:18:00;;;;;;;1.30;0.93;;;;;;;;;;6279780;22;20201;-89
2023/08/10 01:21:11;;;;;;;1.95;1.17;;;;;;;;;;6278760;22;20704;-90
2023/08/10 01:24:21;;;;;;;2.58;1.33;;;;;;;;;;6279448;22;20170;-90
2023/08/10 01:27:30;;;;;;;0.60;0.60;;;;;;;;;;6279128;22;20169;-91
2023/08/10 01:30:36;;;;;;;1.05;1.05;;;;;;;;;;6279385;22;20166;-90
2023/08/10 01:33:41;;;;;;;0.82;0.80;;;;;;;;;;6279039;22;20173;-89
2023/08/10 01:36:48;;;;;;;0.63;0.63;;;;;;;;;;6278465;22;20220;-91
2023/08/10 02:56:18;;;;;;;0.85;0.70;;;;;;;;;;6263993;22;20207;-89
2023/08/10 02:59:23;;;;;;;1.50;0.80;;;;;;;;;;6248138;23;20199;-89
2023/08/10 03:02:29;;;;;;;0.73;0.70;;;;;;;;;;6249349;22;20150;-89
2023/08/10 03:05:36;;;;;;;1.80;1.42;;;;;;;;;;6249873;22;20169;-89
2023/08/10 03:08:43;;;;;;;1.20;0.60;;;;;;;;;;6249803;23;20217;-89
2023/08/10 03:11:52;;;;;;;0.65;0.63;;;;;;;;;;6250118;23;20170;-90
2023/08/10 03:14:57;;;;;;;0.73;0.73;;;;;;;;;;6248888;22;20162;-90
2023/08/10 03:18:03;;;;;;;1.95;1.63;;;;;;;;;;6249949;22;20182;-90
2023/08/10 03:21:10;;;;;;;0.70;0.70;;;;;;;;;;6249696;22;20493;-90
2023/08/10 03:24:16;;;;;;;0.90;0.90;;;;;;;;;;6249676;23;20171;-90
2023/08/10 03:27:23;;;;;;;0.82;0.82;;;;;;;;;;6249594;23;20201;-90
2023/08/10 03:30:29;;;;;;;0.82;0.82;;;;;;;;;;6248273;22;20182;-91
2023/08/10 03:33:36;;;;;;;1.30;0.73;;;;;;;;;;6248729;22;20177;-90
2023/08/10 03:36:42;;;;;;;1.23;1.13;;;;;;;;;;6249361;22;20241;-90
2023/08/10 03:39:48;;;;;;;1.30;0.98;;;;;;;;;;6248161;23;20239;-90
2023/08/10 03:42:56;;;;;;;1.85;0.93;;;;;;;;;;6248728;23;20182;-91
2023/08/10 03:46:05;;;;;;;2.03;1.48;;;;;;;;;;6248211;23;20170;-88
2023/08/10 03:49:11;;;;;;;7.10;1.58;;;;;;;;;;6247789;23;20198;-89
2023/08/10 03:52:16;;;;;;;3.17;2.20;;;;;;;;;;6247782;22;20210;-90
2023/08/10 03:55:22;;;;;;;6.57;2.15;;;;;;;;;;6266848;22;20180;-89
2023/08/10 03:58:29;;;;;;;0.65;0.65;;;;;;;;;;6278169;22;20245;-91
2023/08/10 04:01:36;;;;;;;2.30;1.40;;;;;;;;;;6280393;22;20177;-90
2023/08/10 04:04:42;;;;;;;1.55;1.45;;;;;;;;;;6278654;22;20161;-90
2023/08/10 04:07:47;;;;;;;1.50;1.35;;;;;;;;;;6279701;22;20170;-90
2023/08/10 04:10:54;;;;;;;1.10;1.10;;;;;;;;;;6278908;22;20161;-90
2023/08/10 04:14:01;;;;;;;0.77;0.77;;;;;;;;;;6278817;22;20181;-91
2023/08/10 04:17:07;;;;;;;1.50;1.20;;;;;;;;;;6277246;22;20190;-89
2023/08/10 04:20:14;;;;;;;1.15;1.13;;;;;;;;;;6278641;22;20162;-90
2023/08/10 04:23:19;;;;;;;1.52;1.42;;;;;;;;;;6280120;22;20197;-90
2023/08/10 04:26:24;;;;;;;1.10;0.93;;;;;;;;;;6278754;22;20214;-90
2023/08/10 04:29:32;;;;;;;13.30;2.25;;;;;;;;;;6278087;22;20169;-90
2023/08/10 04:32:38;;;;;;;0.93;0.93;;;;;;;;;;6276962;22;20368;-91
2023/08/10 04:35:44;;;;;;;1.38;1.25;;;;;;;;;;6277039;22;20177;-90
2023/08/10 04:38:49;;;;;;;2.10;1.15;;;;;;;;;;6278013;22;20194;-90
2023/08/10 04:41:56;;;;;;;1.95;1.25;;;;;;;;;;6278631;22;20217;-90
2023/08/10 04:45:07;;;;;;;1.08;0.98;;;;;;;;;;6278401;22;20223;-88
2023/08/10 04:48:13;;;;;;;0.95;0.90;;;;;;;;;;6278577;22;20225;-90
2023/08/10 04:51:19;;;;;;;1.38;1.27;;;;;;;;;;6280717;22;20153;-88
2023/08/10 04:54:24;;;;;;;1.75;1.63;;;;;;;;;;6279282;22;20200;-89
2023/08/10 04:57:30;;;;;;;1.27;1.17;;;;;;;;;;6279986;22;20217;-89
2023/08/10 05:00:38;;;;;;;1.27;1.17;;;;;;;;;;6280151;22;20187;-91
2023/08/10 05:03:44;;;;;;;1.85;1.35;;;;;;;;;;6281670;22;20208;-90
2023/08/10 05:06:52;;;;;;;1.58;1.48;;;;;;;;;;6279620;22;20150;-90
2023/08/10 05:10:09;;;;;;;1.25;0.95;;;;;;;;;;6280484;22;20170;-91
2023/08/10 05:13:15;;;;;;;1.00;0.80;;;;;;;;;;6277914;22;20205;-91
2023/08/10 05:16:22;;;;;;;0.93;0.93;;;;;;;;;;6274210;22;20234;-88
2023/08/10 05:19:29;;;;;;;1.38;1.27;;;;;;;;;;6277394;22;20256;-90
2023/08/10 05:22:35;;;;;;;0.85;0.85;;;;;;;;;;6275597;22;20146;-90
2023/08/10 05:25:40;;;;;;;0.80;0.80;;;;;;;;;;6276107;22;20185;-91
2023/08/10 05:28:46;;;;;;;1.50;1.40;;;;;;;;;;6275563;22;20620;-92
2023/08/10 05:31:53;;;;;;;1.40;1.30;;;;;;;;;;6275492;22;20169;-91
2023/08/10 05:34:58;;;;;;;0.88;0.88;;;;;;;;;;6275263;22;20211;-90
2023/08/10 05:38:04;;;;;;;2.45;1.42;;;;;;;;;;6273703;22;20245;-89
2023/08/10 05:41:09;;;;;;;1.13;1.02;;;;;;;;;;6277023;22;20211;-90
2023/08/10 05:44:15;;;;;;;2.65;1.50;;;;;;;;;;6276255;22;20165;-92
2023/08/10 05:47:22;;;;;;;0.55;0.55;;;;;;;;;;6278380;22;20169;-91
2023/08/10 05:50:27;;;;;;;1.27;1.17;;;;;;;;;;6280730;22;20185;-90
2023/08/10 05:53:34;;;;;;;1.30;1.20;;;;;;;;;;6279898;22;20150;-89
2023/08/10 05:56:45;;;;;;;0.90;0.85;;;;;;;;;;6283290;22;20214;-92
2023/08/10 05:59:55;;;;;;;1.30;1.20;;;;;;;;;;6301557;22;20169;-92
2023/08/10 06:03:09;;;;;;;0.70;0.70;;;;;;;;;;6281563;22;20166;-91
2023/08/10 06:09:35;;;;;;;1.38;1.23;;;;;;;;;;6279427;22;20177;-92
2023/08/10 06:12:41;;;;;;;0.95;0.90;;;;;;;;;;6279573;22;20200;-90
2023/08/10 06:15:48;;;;;;;0.50;0.50;;;;;;;;;;6279813;22;20162;-92
2023/08/10 06:18:55;;;;;;;0.75;0.75;;;;;;;;;;6261165;22;20201;-91
2023/08/10 06:22:00;;;;;;;0.95;0.93;;;;;;;;;;6278853;22;20146;-93
2023/08/10 06:25:07;;;;;;;3.13;1.63;;;;;;;;;;6277600;22;20174;-93
2023/08/10 06:28:12;;;;;;;0.73;0.73;;;;;;;;;;6278212;22;20215;-91
2023/08/10 06:31:19;;;;;;;1.67;1.58;;;;;;;;;;6278146;22;20165;-92
2023/08/10 06:34:27;;;;;;;4.88;1.95;;;;;;;;;;6282668;22;20162;-92
2023/08/10 06:37:34;;;;;;;0.60;0.60;;;;;;;;;;6280586;22;20181;-91
2023/08/10 06:40:41;;;;;;;0.68;0.68;;;;;;;;;;6281113;22;20166;-92
2023/08/10 06:43:49;;;;;;;0.80;0.80;;;;;;;;;;6282982;22;20181;-89
2023/08/10 06:46:57;;;;;;;1.13;0.98;;;;;;;;;;6283112;22;20215;-92
2023/08/10 06:50:08;;;;;;;0.57;0.57;;;;;;;;;;6281642;22;20177;-89
2023/08/10 06:53:13;;;;;;;0.75;0.75;;;;;;;;;;6281752;22;20170;-91
2023/08/10 06:56:20;;;;;;;2.38;1.52;;;;;;;;;;6281170;22;20225;-90
2023/08/10 06:59:25;;;;;;;2.42;1.17;;;;;;;;;;6280415;22;20220;-93
2023/08/10 07:02:34;;;;;;;0.60;0.60;;;;;;;;;;6281185;22;20212;-92
2023/08/10 07:05:43;;;;;;;0.55;0.55;;;;;;;;;;6279913;22;20154;-92
2023/08/10 07:08:52;;;;;;;0.80;0.80;;;;;;;;;;6279919;22;20390;-92
2023/08/10 07:11:58;;;;;;;1.55;1.27;;;;;;;;;;6280522;22;20208;-92
2023/08/10 07:15:04;;;;;;;1.00;1.00;;;;;;;;;;6280269;22;20181;-92
2023/08/10 07:18:09;;;;;;;1.38;1.27;;;;;;;;;;6278115;22;20259;-90
2023/08/10 07:21:17;;;;;;;1.85;0.80;;;;;;;;;;6280061;22;20150;-93
2023/08/10 07:24:25;;;;;;;1.08;1.08;;;;;;;;;;6279835;22;20162;-92
2023/08/10 07:27:31;;;;;;;0.75;0.75;;;;;;;;;;6279444;22;20165;-92
2023/08/10 07:30:38;;;;;;;1.00;0.98;;;;;;;;;;6279896;22;20181;-92
2023/08/10 07:33:44;;;;;;;0.52;0.52;;;;;;;;;;6279417;22;20165;-92
2023/08/10 07:36:52;;;;;;;15.55;8.05;;;;;;;;;;6278819;22;20173;-92
2023/08/10 07:39:58;;;;;;;10.98;7.38;;;;;;;;;;6280246;22;20566;-92
2023/08/10 07:43:04;;;;;;;11.95;7.80;;;;;;;;;;6278459;22;20174;-91
2023/08/10 07:46:10;;;;;;;10.55;6.88;;;;;;;;;;6278755;22;20165;-92
2023/08/10 07:49:16;;;;;;;11.20;7.25;;;;;;;;;;6295915;22;20238;-92
2023/08/10 07:52:23;;;;;;;10.20;6.82;;;;;;;;;;6278233;22;20389;-94
2023/08/10 07:55:29;;;;;;;8.23;5.70;;;;;;;;;;6280344;22;20204;-91
2023/08/10 07:58:35;;;;;;;8.93;5.97;;;;;;;;;;6279564;22;20217;-92
2023/08/10 08:01:43;;;;;;;9.25;5.72;;;;;;;;;;6280048;22;20170;-92
2023/08/10 08:04:57;;;;;;;8.82;5.70;;;;;;;;;;6279245;22;20166;-91
2023/08/10 08:08:05;;;;;;;9.48;6.13;;;;;;;;;;6278379;22;20211;-91
2023/08/10 08:11:11;;;;;;;6.85;4.97;;;;;;;;;;6278164;22;20172;-91
2023/08/10 08:14:17;;;;;;;6.82;4.35;;;;;;;;;;6279813;22;20221;-91
2023/08/10 08:17:22;;;;;;;5.18;4.07;;;;;;;;;;6277839;22;20216;-91
2023/08/10 08:20:28;;;;;;;10.25;4.35;;;;;;;;;;6277920;22;20203;-93
2023/08/10 08:23:35;;;;;;;6.47;3.13;;;;;;;;;;6278891;22;20185;-91
2023/08/10 08:26:41;;;;;;;6.30;3.33;;;;;;;;;;6278673;22;20170;-91
2023/08/10 08:29:46;;;;;;;5.63;3.55;;;;;;;;;;6279247;22;20237;-92
2023/08/10 08:32:52;;;;;;;5.13;3.40;;;;;;;;;;6279560;22;20161;-91
2023/08/10 08:35:57;;;;;;;4.60;2.95;;;;;;;;;;6279424;22;20149;-90
2023/08/10 08:39:04;;;;;;;4.95;2.95;;;;;;;;;;6277214;22;20165;-92
2023/08/10 08:45:33;;;;;;;4.82;2.60;;;;;;;;;;6300143;22;20185;-94
2023/08/10 08:48:39;;;;;;;7.45;2.60;;;;;;;;;;6284911;22;20245;-91
2023/08/10 08:51:50;;;;;;;4.97;2.53;;;;;;;;;;6284485;22;20178;-91
2023/08/10 08:58:34;;;;;;;4.38;2.10;;;;;;;;;;6282858;22;20180;-91
2023/08/10 09:01:54;;;;;;;4.25;2.85;;;;;;;;;;6283712;22;20249;-91
2023/08/10 09:05:09;;;;;;;5.80;2.78;;;;;;;;;;6301300;22;20166;-92
2023/08/10 11:00:09;;;;;;;4.75;1.77;;;;;;;;;;6325851;22;20181;-92
2023/08/10 11:03:14;;;;;;;4.15;1.90;;;;;;;;;;6304557;22;20200;-90
2023/08/10 11:06:20;;;;;;;2.95;1.40;;;;;;;;;;6306686;22;20218;-93
2023/08/10 11:09:27;;;;;;;3.42;1.40;;;;;;;;;;6308479;22;20208;-92
2023/08/10 11:12:36;;;;;;;3.50;1.60;;;;;;;;;;6309072;22;20208;-93
2023/08/10 11:15:49;;;;;;;3.85;1.85;;;;;;;;;;6309254;22;20204;-91
2023/08/10 11:18:58;;;;;;;2.63;1.50;;;;;;;;;;6308265;22;20233;-92
2023/08/10 13:28:12;;;;;;;2.50;1.23;;;;;;;;;;6321762;22;20177;-95
2023/08/10 13:31:17;;;;;;;4.50;1.30;;;;;;;;;;6302462;22;20157;-92
2023/08/10 13:34:23;;;;;;;1.63;1.40;;;;;;;;;;6302959;22;20220;-91
2023/08/10 13:37:30;;;;;;;2.70;1.55;;;;;;;;;;6305186;22;20152;-89
2023/08/10 13:40:43;;;;;;;4.00;1.58;;;;;;;;;;6307161;22;20487;-92
2023/08/10 13:43:52;;;;;;;4.88;1.65;;;;;;;;;;6305590;22;20168;-92
2023/08/10 13:46:57;;;;;;;2.25;1.40;;;;;;;;;;6304447;22;20251;-93
2023/08/10 13:53:25;;;;;;;3.35;1.48;;;;;;;;;;6311644;22;20173;-91
2023/08/10 13:56:31;;;;;;;1.67;1.30;;;;;;;;;;6309633;22;20160;-92
2023/08/10 13:59:38;;;;;;;3.83;1.50;;;;;;;;;;6311089;22;20164;-92
2023/08/10 14:02:47;;;;;;;3.83;1.40;;;;;;;;;;6305517;22;20160;-92
2023/08/10 14:09:14;;;;;;;2.30;1.70;;;;;;;;;;6325892;22;20204;-94
2023/08/10 14:12:21;;;;;;;3.10;2.05;;;;;;;;;;6306234;22;20213;-92
2023/08/10 14:15:28;;;;;;;3.50;1.40;;;;;;;;;;6304034;22;20183;-92
2023/08/10 14:18:34;;;;;;;3.60;1.30;;;;;;;;;;6306244;22;20201;-92
2023/08/10 14:21:42;;;;;;;2.28;1.60;;;;;;;;;;6307493;22;20164;-92
2023/08/10 14:24:47;;;;;;;2.70;1.50;;;;;;;;;;6305771;22;20168;-91
2023/08/10 14:27:54;;;;;;;2.63;1.30;;;;;;;;;;6304658;22;20187;-92
2023/08/10 14:31:02;;;;;;;2.47;1.30;;;;;;;;;;6307839;22;20152;-90
2023/08/10 14:34:07;;;;;;;2.90;1.20;;;;;;;;;;6307819;22;20152;-91
2023/08/10 14:37:13;;;;;;;4.40;1.45;;;;;;;;;;6309179;22;20164;-91
2023/08/10 14:40:18;;;;;;;2.78;1.67;;;;;;;;;;6303855;22;20506;-92
2023/08/10 14:43:24;;;;;;;2.05;1.55;;;;;;;;;;6299377;22;20168;-93
2023/08/10 14:46:31;;;;;;;4.07;1.60;;;;;;;;;;6300806;22;20254;-90
2023/08/10 14:49:37;;;;;;;1.92;1.50;;;;;;;;;;6308107;22;20188;-91
2023/08/10 14:52:43;;;;;;;4.78;1.60;;;;;;;;;;6309605;22;20164;-90
2023/08/10 14:55:50;;;;;;;4.30;1.52;;;;;;;;;;6291498;22;20149;-90
2023/08/10 14:59:00;;;;;;;2.92;1.42;;;;;;;;;;6307679;22;20168;-89
2023/08/10 15:02:06;;;;;;;2.45;1.48;;;;;;;;;;6310168;22;20173;-90
2023/08/10 15:05:11;;;;;;;3.08;1.92;;;;;;;;;;6310198;22;20184;-90
2023/08/10 15:14:09;;;;;;;2.78;1.35;;;;;;;;;;6324841;22;20185;-88
2023/08/10 15:17:16;;;;;;;2.03;1.40;;;;;;;;;;6304006;22;20157;-89
2023/08/10 15:20:21;;;;;;;3.70;2.05;;;;;;;;;;6305145;22;20184;-93
2023/08/10 15:23:26;;;;;;;3.50;1.40;;;;;;;;;;6303173;22;20174;-90
2023/08/10 15:26:39;;;;;;;1.88;1.50;;;;;;;;;;6305001;22;20160;-90
2023/08/10 15:29:45;;;;;;;2.25;1.40;;;;;;;;;;6304397;22;20199;-91
2023/08/10 15:32:51;;;;;;;1.70;1.45;;;;;;;;;;6303701;22;20168;-89
2023/08/10 15:35:56;;;;;;;4.05;1.73;;;;;;;;;;6304102;22;20161;-90
2023/08/10 15:39:02;;;;;;;3.63;2.33;;;;;;;;;;6304264;22;20207;-91
2023/08/10 15:42:08;;;;;;;5.20;1.45;;;;;;;;;;6304802;22;20209;-92
2023/08/10 15:45:14;;;;;;;1.85;1.33;;;;;;;;;;6302202;22;20169;-90
2023/08/10 15:48:20;;;;;;;2.53;1.40;;;;;;;;;;6303398;22;20166;-89
2023/08/10 15:51:27;;;;;;;2.53;1.67;;;;;;;;;;6305141;22;20176;-88
2023/08/10 15:54:32;;;;;;;10.02;7.75;;;;;;;;;;6303597;22;20150;-92
2023/08/10 15:57:42;;;;;;;7.18;2.47;;;;;;;;;;6305037;22;20148;-93
2023/08/10 16:00:47;;;;;;;1.75;1.27;;;;;;;;;;6305310;22;20493;-89
2023/08/10 16:04:08;;;;;;;2.47;1.70;;;;;;;;;;6305397;22;20165;-90
2023/08/10 16:07:14;;;;;;;2.45;1.50;;;;;;;;;;6303148;22;20169;-90
2023/08/10 16:10:19;;;;;;;3.75;1.40;;;;;;;;;;6301964;22;20308;-89
2023/08/10 16:13:24;;;;;;;3.15;1.70;;;;;;;;;;6306942;22;20193;-92
2023/08/10 16:16:29;;;;;;;2.05;1.35;;;;;;;;;;6305935;22;20188;-90
2023/08/10 16:19:35;;;;;;;5.60;1.65;;;;;;;;;;6306729;22;20172;-91
2023/08/10 16:22:42;;;;;;;2.00;1.40;;;;;;;;;;6304922;22;20162;-90
2023/08/10 16:25:50;;;;;;;2.92;1.70;;;;;;;;;;6305128;22;20165;-91
2023/08/10 16:28:57;;;;;;;2.22;1.67;;;;;;;;;;6305881;22;20161;-92
2023/08/10 16:32:33;;;;;;;3.42;1.63;;;;;;;;;;6306657;22;20169;-92
2023/08/10 16:35:39;;;;;;;2.33;1.30;;;;;;;;;;6307828;22;20215;-89
2023/08/10 16:38:48;;;;;;;2.85;1.40;;;;;;;;;;6302511;22;20153;-91
2023/08/10 16:41:54;;;;;;;4.68;1.65;;;;;;;;;;6303263;22;20490;-90
2023/08/10 16:44:59;;;;;;;3.42;1.27;;;;;;;;;;6302599;22;20254;-89
2023/08/10 16:48:04;;;;;;;3.22;1.73;;;;;;;;;;6286146;22;20487;-91
2023/08/10 16:51:09;;;;;;;3.05;1.50;;;;;;;;;;6304327;22;20189;-90
2023/08/10 16:54:16;;;;;;;6.50;1.80;;;;;;;;;;6304301;22;20149;-90
2023/08/10 16:57:22;;;;;;;4.63;1.70;;;;;;;;;;6304273;22;20153;-89
2023/08/10 17:00:28;;;;;;;2.40;1.55;;;;;;;;;;6307692;22;20153;-88
2023/08/10 17:03:34;;;;;;;2.70;1.60;;;;;;;;;;6307100;22;20165;-91
2023/08/10 17:06:43;;;;;;;3.20;1.45;;;;;;;;;;6311527;22;20161;-92
2023/08/10 17:09:50;;;;;;;4.38;1.90;;;;;;;;;;6305112;22;20192;-91
2023/08/10 17:12:56;;;;;;;1.63;1.20;;;;;;;;;;6304417;22;20172;-89
2023/08/10 17:16:00;;;;;;;2.80;1.50;;;;;;;;;;6304707;22;20258;-92
2023/08/10 17:19:06;;;;;;;3.08;1.52;;;;;;;;;;6304775;22;20204;-90
2023/08/10 17:22:11;;;;;;;2.05;1.50;;;;;;;;;;6302633;22;20253;-88
2023/08/10 17:25:17;;;;;;;3.53;1.70;;;;;;;;;;6306396;22;20172;-91
2023/08/10 17:28:22;;;;;;;2.30;1.63;;;;;;;;;;6309909;22;20188;-89
2023/08/10 17:31:28;;;;;;;4.72;1.60;;;;;;;;;;6307878;22;20248;-90
2023/08/10 17:34:33;;;;;;;3.78;1.92;;;;;;;;;;6304576;22;20203;-93
2023/08/10 17:37:39;;;;;;;2.55;1.60;;;;;;;;;;6304207;22;20550;-90
2023/08/10 17:40:46;;;;;;;6.03;1.67;;;;;;;;;;6304734;22;20157;-90
2023/08/10 17:43:51;;;;;;;2.00;1.40;;;;;;;;;;6302597;22;20165;-90
2023/08/10 17:46:56;;;;;;;3.33;1.38;;;;;;;;;;6303420;22;20268;-86
2023/08/10 17:50:01;;;;;;;5.03;1.85;;;;;;;;;;6302686;22;20192;-92
2023/08/10 17:53:06;;;;;;;5.28;1.67;;;;;;;;;;6303347;22;20199;-90
2023/08/10 17:56:14;;;;;;;3.67;2.20;;;;;;;;;;6305034;22;20172;-91
2023/08/10 17:59:19;;;;;;;5.22;2.17;;;;;;;;;;6302386;22;20160;-90
2023/08/10 18:02:24;;;;;;;9.10;2.70;;;;;;;;;;6304081;22;20165;-87
2023/08/10 18:05:29;;;;;;;6.32;2.67;;;;;;;;;;6304388;22;20169;-88
2023/08/10 18:08:35;;;;;;;3.97;2.25;;;;;;;;;;6305138;22;20208;-88
2023/08/10 18:11:42;;;;;;;5.13;2.22;;;;;;;;;;6306876;22;20173;-90
2023/08/10 18:14:47;;;;;;;3.15;1.80;;;;;;;;;;6305693;22;20169;-89
2023/08/10 18:17:52;;;;;;;5.57;2.30;;;;;;;;;;6305798;22;20292;-90
2023/08/10 18:20:59;;;;;;;5.00;2.08;;;;;;;;;;6307743;22;20196;-89
2023/08/10 18:24:04;;;;;;;6.40;1.70;;;;;;;;;;6306668;22;20172;-90
2023/08/10 18:27:13;;;;;;;5.57;1.88;;;;;;;;;;6307508;22;20169;-89
2023/08/10 18:30:18;;;;;;;3.58;2.03;;;;;;;;;;6309354;22;20196;-90
2023/08/10 18:33:24;;;;;;;4.10;2.08;;;;;;;;;;6307676;22;20169;-89
2023/08/10 18:36:29;;;;;;;8.48;2.25;;;;;;;;;;6308573;22;20165;-90
2023/08/10 18:39:35;;;;;;;3.67;2.10;;;;;;;;;;6308381;22;20169;-87
2023/08/10 18:42:43;;;;;;;16.17;7.30;;;;;;;;;;6312066;22;20537;-89
2023/08/10 18:45:49;;;;;;;239.27;119.50;;;;;;;;;;6312935;22;20165;-91
2023/08/10 18:48:57;;;;;;;160.90;112.45;;;;;;;;;;6310968;22;20181;-89
2023/08/10 18:52:03;;;;;;;22.40;14.70;;;;;;;;;;6293036;22;20696;-91
2023/08/10 18:55:09;;;;;;;9.90;6.25;;;;;;;;;;6310498;22;20212;-90
2023/08/10 18:58:18;;;;;;;8.50;2.83;;;;;;;;;;6311238;22;20149;-90
2023/08/10 19:01:28;;;;;;;4.63;2.30;;;;;;;;;;6312191;22;20173;-90
2023/08/10 19:04:33;;;;;;;5.38;2.22;;;;;;;;;;6311064;22;20678;-90
2023/08/10 19:07:39;;;;;;;6.28;2.05;;;;;;;;;;6311071;22;20188;-89
2023/08/10 19:10:49;;;;;;;4.30;2.05;;;;;;;;;;6310407;22;20197;-91
2023/08/10 19:13:56;;;;;;;3.92;2.03;;;;;;;;;;6309698;22;20188;-89
2023/08/10 19:17:01;;;;;;;6.40;2.08;;;;;;;;;;6307392;22;20165;-91
2023/08/10 19:20:07;;;;;;;4.75;2.00;;;;;;;;;;6306713;22;20183;-92
2023/08/10 19:23:13;;;;;;;6.45;2.33;;;;;;;;;;6307630;22;20165;-88
2023/08/10 19:26:19;;;;;;;5.25;2.10;;;;;;;;;;6305059;22;20165;-88
2023/08/10 19:29:27;;;;;;;5.22;2.30;;;;;;;;;;6305634;22;20165;-89
2023/08/10 19:32:32;;;;;;;3.53;1.90;;;;;;;;;;6308134;22;20169;-88
2023/08/10 19:35:37;;;;;;;5.68;2.30;;;;;;;;;;6303336;22;20216;-87
2023/08/10 19:38:43;;;;;;;5.70;2.10;;;;;;;;;;6302108;22;20165;-91
2023/08/10 19:41:48;;;;;;;4.95;2.45;;;;;;;;;;6302146;22;20233;-90
2023/08/10 19:44:55;;;;;;;6.60;2.20;;;;;;;;;;6305473;22;20149;-90
2023/08/10 19:48:02;;;;;;;5.72;2.40;;;;;;;;;;6305358;22;20164;-90
2023/08/10 19:51:07;;;;;;;7.18;2.58;;;;;;;;;;6303828;22;20200;-89
2023/08/10 19:54:12;;;;;;;2.95;2.08;;;;;;;;;;6305578;22;20148;-90
2023/08/10 19:57:17;;;;;;;7.65;2.38;;;;;;;;;;6307185;22;20247;-90
2023/08/10 20:00:26;;;;;;;5.43;2.38;;;;;;;;;;6306901;22;20210;-89
2023/08/10 20:03:33;;;;;;;7.60;2.60;;;;;;;;;;6305018;22;20173;-90
2023/08/10 20:06:39;;;;;;;6.60;2.60;;;;;;;;;;6307752;22;20165;-89
2023/08/10 20:09:45;;;;;;;7.63;2.85;;;;;;;;;;6305459;22;20153;-86
2023/08/10 20:12:50;;;;;;;6.40;2.72;;;;;;;;;;6306802;22;20189;-90
2023/08/10 20:16:03;;;;;;;7.22;2.42;;;;;;;;;;6309376;22;20261;-89
2023/08/10 20:19:08;;;;;;;3.95;2.72;;;;;;;;;;6308162;22;20188;-90
2023/08/10 20:22:14;;;;;;;6.00;2.78;;;;;;;;;;6308503;22;20145;-90
2023/08/10 20:25:20;;;;;;;9.82;2.50;;;;;;;;;;6308313;22;20150;-91
2023/08/10 20:28:25;;;;;;;8.98;3.13;;;;;;;;;;6305011;22;20166;-90
2023/08/10 20:31:32;;;;;;;7.80;2.60;;;;;;;;;;6309181;22;20189;-91
2023/08/10 20:34:38;;;;;;;6.30;2.92;;;;;;;;;;6305323;22;20188;-90
2023/08/10 20:37:43;;;;;;;9.27;2.83;;;;;;;;;;6307137;22;20165;-89
2023/08/10 20:40:49;;;;;;;6.28;2.42;;;;;;;;;;6306433;22;20632;-88
2023/08/10 20:43:54;;;;;;;4.93;2.67;;;;;;;;;;6304645;22;20165;-89
2023/08/10 20:47:01;;;;;;;8.38;2.58;;;;;;;;;;6305657;22;20165;-89
2023/08/10 20:50:08;;;;;;;6.70;2.60;;;;;;;;;;6304729;22;20165;-90
2023/08/10 20:53:13;;;;;;;8.02;2.65;;;;;;;;;;6305215;22;20165;-89
2023/08/10 20:56:19;;;;;;;8.45;2.85;;;;;;;;;;6303578;22;20476;-87
2023/08/10 20:59:25;;;;;;;10.35;2.67;;;;;;;;;;6306601;22;20230;-90
2023/08/10 21:02:32;;;;;;;7.70;2.65;;;;;;;;;;6306429;22;20223;-89
2023/08/10 21:05:37;;;;;;;6.53;3.15;;;;;;;;;;6308292;22;20628;-90
2023/08/10 21:08:44;;;;;;;7.88;3.40;;;;;;;;;;6305614;22;20181;-90
2023/08/10 21:11:50;;;;;;;11.90;6.15;;;;;;;;;;6304315;22;20238;-89
2023/08/10 21:14:56;;;;;;;6.90;2.92;;;;;;;;;;6304825;22;20233;-91
2023/08/10 21:18:05;;;;;;;6.50;2.60;;;;;;;;;;6305527;22;20169;-89
2023/08/10 21:21:10;;;;;;;7.35;2.72;;;;;;;;;;6303930;22;20261;-91
2023/08/10 21:24:16;;;;;;;5.38;2.80;;;;;;;;;;6303871;22;20169;-89
2023/08/10 21:27:21;;;;;;;4.95;2.78;;;;;;;;;;6302611;22;20231;-90
2023/08/10 21:30:27;;;;;;;8.07;2.80;;;;;;;;;;6304700;22;20176;-90
2023/08/10 21:33:34;;;;;;;8.82;2.75;;;;;;;;;;6301789;22;20602;-89
2023/08/10 21:36:40;;;;;;;6.88;2.60;;;;;;;;;;6302961;22;20233;-91
2023/08/10 21:39:45;;;;;;;8.35;2.92;;;;;;;;;;6303362;22;20187;-89
2023/08/10 21:42:50;;;;;;;8.05;2.72;;;;;;;;;;6304214;22;20185;-90
2023/08/10 21:45:55;;;;;;;8.02;3.03;;;;;;;;;;6303894;22;20165;-89
2023/08/10 21:49:03;;;;;;;13.77;3.55;;;;;;;;;;6300499;22;20165;-89
2023/08/10 21:52:08;;;;;;;6.90;2.83;;;;;;;;;;6302914;22;20216;-89
2023/08/10 21:55:14;;;;;;;8.35;2.70;;;;;;;;;;6301553;22;20658;-90
2023/08/10 21:58:19;;;;;;;6.40;3.03;;;;;;;;;;6302071;22;20164;-90
2023/08/10 22:01:47;;;;;;;7.90;2.90;;;;;;;;;;6300732;22;20171;-88
2023/08/10 22:04:54;;;;;;;6.07;2.75;;;;;;;;;;6301119;22;20168;-90
2023/08/10 22:07:59;;;;;;;7.82;2.70;;;;;;;;;;6301613;22;20169;-90
2023/08/10 22:11:04;;;;;;;6.57;2.88;;;;;;;;;;6301990;22;20211;-90
2023/08/10 22:14:09;;;;;;;5.07;2.58;;;;;;;;;;6301072;22;20302;-92
2023/08/10 22:17:15;;;;;;;4.90;3.05;;;;;;;;;;6321197;22;20153;-90
2023/08/10 22:20:21;;;;;;;9.80;3.20;;;;;;;;;;6303651;22;20169;-91
2023/08/10 22:23:26;;;;;;;7.93;3.15;;;;;;;;;;6303431;22;20165;-90
2023/08/10 22:26:31;;;;;;;5.78;2.80;;;;;;;;;;6301729;22;20207;-90
2023/08/10 22:29:42;;;;;;;9.23;2.90;;;;;;;;;;6302338;22;20160;-90
2023/08/10 22:32:48;;;;;;;8.05;2.90;;;;;;;;;;6301981;22;20153;-90
2023/08/10 22:35:55;;;;;;;7.35;2.88;;;;;;;;;;6301770;22;20164;-90
2023/08/10 22:39:00;;;;;;;6.00;2.78;;;;;;;;;;6302068;22;20169;-91
2023/08/10 22:42:05;;;;;;;6.82;2.95;;;;;;;;;;6302332;22;20516;-91
2023/08/10 22:45:11;;;;;;;7.15;2.78;;;;;;;;;;6302448;22;20235;-90
2023/08/10 22:48:16;;;;;;;8.43;3.08;;;;;;;;;;6301421;22;20164;-90
2023/08/10 22:51:23;;;;;;;6.50;2.90;;;;;;;;;;6300460;22;20727;-90
2023/08/10 22:54:28;;;;;;;5.55;2.78;;;;;;;;;;6302346;22;20488;-90
2023/08/10 22:57:33;;;;;;;7.43;3.00;;;;;;;;;;6302994;22;20231;-92
2023/08/10 23:00:39;;;;;;;6.57;3.00;;;;;;;;;;6302876;22;20168;-90
2023/08/10 23:03:44;;;;;;;8.13;3.92;;;;;;;;;;6301848;22;20500;-89
2023/08/10 23:06:51;;;;;;;11.13;3.25;;;;;;;;;;6301141;22;20533;-90
2023/08/10 23:09:56;;;;;;;7.65;2.85;;;;;;;;;;6302442;22;20161;-90
2023/08/10 23:13:05;;;;;;;5.53;2.88;;;;;;;;;;6301557;22;20189;-90
2023/08/10 23:16:13;;;;;;;8.48;2.83;;;;;;;;;;6304528;22;20255;-90
2023/08/10 23:19:19;;;;;;;15.25;3.20;;;;;;;;;;6303578;22;20160;-90
2023/08/10 23:22:26;;;;;;;8.90;3.15;;;;;;;;;;6302574;22;20153;-90
2023/08/10 23:25:31;;;;;;;9.73;3.40;;;;;;;;;;6303036;22;20165;-91
2023/08/10 23:28:36;;;;;;;5.03;2.80;;;;;;;;;;6302818;22;20620;-91
2023/08/10 23:31:41;;;;;;;6.05;2.92;;;;;;;;;;6302728;22;20192;-91
2023/08/10 23:34:46;;;;;;;10.30;3.30;;;;;;;;;;6301531;22;20169;-91
2023/08/10 23:37:55;;;;;;;7.43;2.60;;;;;;;;;;6301302;22;20169;-90
2023/08/10 23:41:05;;;;;;;11.32;2.90;;;;;;;;;;6304309;22;20188;-91
2023/08/10 23:44:11;;;;;;;13.40;3.03;;;;;;;;;;6303507;22;20173;-89
2023/08/10 23:47:15;;;;;;;3.90;2.67;;;;;;;;;;6321742;22;20184;-89
2023/08/10 23:50:21;;;;;;;5.63;2.90;;;;;;;;;;6319560;22;20280;-91
2023/08/10 23:53:28;;;;;;;10.05;3.17;;;;;;;;;;6299844;22;20226;-90
2023/08/10 23:56:34;;;;;;;5.57;2.72;;;;;;;;;;6301754;22;20169;-90
2023/08/10 23:59:40;;;;;;;6.00;3.33;;;;;;;;;;6301646;22;20168;-90
